Terminal Aerodrome Forecast
Issued by NWS

Home | Current Version | Previous Version | Text Only | Print | Product List | Glossary On
Versions: 1 2 3 4 5 6 7 8 9 10 11 12 13 14 15
706
FTUS43 KMPX 241143
TAFRNH
TAF
KRNH 241143Z 2412/2512 20005KT P6SM BKN035 OVC100
     FM241400 24005KT P6SM SCT200
     FM250000 15003KT P6SM BKN250=

USA.gov is the U.S. government's official web portal to all federal, state and local government web resources and services.